createdAt,value
2019-04-11T00:00:59.566Z,63.20
2019-04-11T00:03:29.218Z,63.50
2019-04-11T00:05:57.125Z,63.20
2019-04-11T00:08:25.983Z,64.30
2019-04-11T00:11:03.794Z,64.20
2019-04-11T00:13:33.407Z,63.80
2019-04-11T00:16:02.089Z,63.90
2019-04-11T00:18:30.902Z,64.30
2019-04-11T00:21:00.345Z,64.10
2019-04-11T00:23:35.100Z,64.40
2019-04-11T00:26:06.633Z,64.70
2019-04-11T00:28:35.740Z,63.80
2019-04-11T00:31:02.641Z,64.70
2019-04-11T00:33:31.962Z,64.30
2019-04-11T00:36:06.229Z,64.10
2019-04-11T00:38:36.129Z,63.90
2019-04-11T00:41:03.743Z,64.30
2019-04-11T00:43:39.126Z,64.30
2019-04-11T00:46:07.804Z,64.90
2019-04-11T00:48:35.930Z,63.40
2019-04-11T00:51:03.517Z,65.00
2019-04-11T00:53:30.539Z,65.00
2019-04-11T00:55:57.738Z,64.70
2019-04-11T00:58:33.854Z,64.80
2019-04-11T01:01:01.769Z,65.00
2019-04-11T01:03:28.742Z,65.10
2019-04-11T01:05:56.685Z,63.90
2019-04-11T01:08:25.671Z,65.10
2019-04-11T01:10:52.637Z,64.70
2019-04-11T01:13:19.569Z,65.30
2019-04-11T01:15:56.571Z,65.10
2019-04-11T01:18:29.857Z,65.30
2019-04-11T01:21:06.846Z,64.30
2019-04-11T01:23:35.727Z,64.90
2019-04-11T01:26:03.404Z,64.60
2019-04-11T01:28:31.311Z,65.70
2019-04-11T01:31:03.087Z,65.40
2019-04-11T01:33:38.541Z,65.80
2019-04-11T01:36:12.694Z,65.90
2019-04-11T01:38:44.373Z,66.50
2019-04-11T01:41:12.121Z,66.50
2019-04-11T01:43:52.646Z,66.00
2019-04-11T01:46:09.876Z,66.40
2019-04-11T01:48:47.934Z,66.30
2019-04-11T01:51:23.833Z,66.30
2019-04-11T01:53:52.616Z,66.10
2019-04-11T01:56:21.755Z,67.10
2019-04-11T01:58:50.951Z,67.10
2019-04-11T02:01:25.086Z,67.70
2019-04-11T02:03:57.255Z,66.40
2019-04-11T02:06:26.238Z,67.50
2019-04-11T02:08:54.127Z,67.30
2019-04-11T02:11:21.304Z,67.70
2019-04-11T02:13:48.261Z,67.00
2019-04-11T02:16:21.461Z,68.20
2019-04-11T02:18:54.527Z,68.60
2019-04-11T02:21:31.714Z,68.30
2019-04-11T02:24:05.675Z,68.30
2019-04-11T02:26:33.665Z,68.50
2019-04-11T02:29:03.477Z,69.20
2019-04-11T02:31:30.797Z,69.20
2019-04-11T02:33:59.489Z,68.10
2019-04-11T02:36:27.784Z,69.10
2019-04-11T02:39:02.195Z,69.10
2019-04-11T02:41:29.853Z,69.80
2019-04-11T02:44:26.507Z,70.10
2019-04-11T02:46:48.190Z,70.00
2019-04-11T02:49:10.846Z,70.20
2019-04-11T02:51:39.217Z,69.90
2019-04-11T02:54:08.334Z,69.30
2019-04-11T02:56:43.131Z,69.80
2019-04-11T02:59:11.276Z,70.90
2019-04-11T03:01:42.018Z,70.20
2019-04-11T03:04:10.458Z,70.50
2019-04-11T03:06:39.868Z,71.70
2019-04-11T03:09:07.812Z,71.00
2019-04-11T03:11:36.108Z,71.70
2019-04-11T03:14:03.843Z,72.50
2019-04-11T03:16:49.196Z,72.20
2019-04-11T03:19:21.177Z,72.30
2019-04-11T03:21:41.698Z,72.00
2019-04-11T03:24:11.153Z,72.60
2019-04-11T03:26:38.411Z,72.80
2019-04-11T03:29:06.420Z,72.50
2019-04-11T03:32:13.831Z,72.80
2019-04-11T03:35:17.484Z,72.20
2019-04-11T03:37:19.346Z,73.20
2019-04-11T03:39:39.776Z,74.20
2019-04-11T03:42:07.309Z,73.80
2019-04-11T03:44:24.208Z,72.20
2019-04-11T03:47:06.916Z,72.70
2019-04-11T03:49:27.855Z,73.50
2019-04-11T03:51:47.977Z,74.60
2019-04-11T03:54:15.698Z,74.30
2019-04-11T03:56:43.318Z,74.80
2019-04-11T03:59:16.561Z,74.00
2019-04-11T04:01:50.749Z,74.30
2019-04-11T04:04:21.585Z,75.30
2019-04-11T04:06:48.291Z,73.50
2019-04-11T04:09:20.866Z,74.50
2019-04-11T04:11:54.588Z,74.60
2019-04-11T04:14:47.052Z,75.20
2019-04-11T04:17:33.212Z,74.60
2019-04-11T04:20:12.784Z,75.80
2019-04-11T04:22:49.949Z,76.60
2019-04-11T04:25:18.868Z,76.30
2019-04-11T04:27:46.845Z,74.50
2019-04-11T04:30:18.107Z,75.40
2019-04-11T04:32:47.281Z,75.00
2019-04-11T04:35:24.101Z,76.10
2019-04-11T04:37:52.045Z,76.30
2019-04-11T04:40:41.378Z,76.40
2019-04-11T04:42:56.127Z,76.00
2019-04-11T04:45:49.562Z,75.90
2019-04-11T04:48:06.910Z,75.20
2019-04-11T04:50:34.248Z,76.40
2019-04-11T04:53:02.780Z,76.90
2019-04-11T04:55:32.749Z,77.00
2019-04-11T04:58:02.750Z,77.20
2019-04-11T05:00:35.077Z,78.00
2019-04-11T05:03:02.639Z,76.60
2019-04-11T05:05:48.344Z,75.30
2019-04-11T05:08:16.545Z,76.50
2019-04-11T05:10:44.945Z,77.70
2019-04-11T05:13:21.531Z,76.10
2019-04-11T05:15:50.362Z,76.60
2019-04-11T05:18:20.728Z,75.80
2019-04-11T05:20:56.875Z,78.00
2019-04-11T05:23:33.911Z,78.30
2019-04-11T05:26:01.861Z,78.80
2019-04-11T05:28:31.939Z,78.90
2019-04-11T05:31:02.580Z,79.30
2019-04-11T05:33:31.565Z,80.70
2019-04-11T05:36:20.569Z,78.90
2019-04-11T05:38:48.727Z,78.70
2019-04-11T05:41:18.305Z,79.50
2019-04-11T05:43:49.452Z,80.50
2019-04-11T05:46:30.984Z,79.10
2019-04-11T05:48:59.440Z,78.70
2019-04-11T05:51:25.243Z,80.60
2019-04-11T05:53:55.742Z,78.90
2019-04-11T05:56:30.093Z,80.40
2019-04-11T05:59:30.720Z,81.00
2019-04-11T06:02:07.231Z,80.70
2019-04-11T06:04:51.923Z,81.50
2019-04-11T06:07:30.445Z,81.90
2019-04-11T06:10:07.688Z,80.80
2019-04-11T06:12:52.692Z,81.60
2019-04-11T06:15:24.998Z,81.50
2019-04-11T06:17:55.171Z,82.20
2019-04-11T06:20:45.000Z,82.10
2019-04-11T06:23:23.500Z,82.00
2019-04-11T06:26:14.954Z,81.60
2019-04-11T06:28:42.979Z,81.40
2019-04-11T06:31:40.400Z,81.10
2019-04-11T06:34:09.262Z,80.40
2019-04-11T06:36:57.133Z,80.20
2019-04-11T06:39:43.213Z,81.60
2019-04-11T06:42:43.462Z,79.90
2019-04-11T06:45:33.782Z,78.50
2019-04-11T06:48:29.908Z,78.40
2019-04-11T06:51:08.028Z,76.80
2019-04-11T06:53:48.439Z,70.30
2019-04-11T06:56:20.962Z,72.10
2019-04-11T06:58:56.754Z,68.50
2019-04-11T07:01:26.335Z,68.40
2019-04-11T07:04:01.003Z,69.30
2019-04-11T07:06:31.401Z,63.90
2019-04-11T07:09:12.475Z,61.30
2019-04-11T07:11:44.865Z,60.00
2019-04-11T07:14:20.605Z,60.60
2019-04-11T07:17:09.031Z,58.10
2019-04-11T07:19:55.747Z,58.80
2019-04-11T07:22:43.165Z,57.20
2019-04-11T07:25:29.184Z,58.50
2019-04-11T07:28:10.136Z,54.30
2019-04-11T07:31:00.250Z,54.20
2019-04-11T07:33:45.260Z,53.20
2019-04-11T07:36:31.621Z,53.00
2019-04-11T07:39:07.661Z,51.20
2019-04-11T07:41:53.955Z,51.00
2019-04-11T07:44:23.873Z,49.80
2019-04-11T07:47:14.631Z,49.20
2019-04-11T07:49:35.080Z,49.90
2019-04-11T07:52:04.682Z,47.90
2019-04-11T07:54:34.895Z,46.50
2019-04-11T07:57:15.345Z,45.10
2019-04-11T08:00:01.864Z,45.70
2019-04-11T08:02:48.094Z,45.80
2019-04-11T08:05:54.437Z,43.00
2019-04-11T08:08:51.401Z,42.20
2019-04-11T08:11:44.252Z,41.00
2019-04-11T08:14:30.807Z,40.40
2019-04-11T08:17:27.941Z,40.70
2019-04-11T08:20:25.533Z,39.70
2019-04-11T08:22:59.142Z,39.10
2019-04-11T08:25:55.823Z,39.40
2019-04-11T08:28:24.846Z,38.40
2019-04-11T08:31:27.120Z,37.50
2019-04-11T08:33:59.266Z,37.40
2019-04-11T08:36:51.263Z,38.10
2019-04-11T08:39:23.238Z,34.40
2019-04-11T08:42:03.541Z,36.00
2019-04-11T08:44:36.555Z,35.10
2019-04-11T08:47:11.935Z,35.70
2019-04-11T08:49:48.128Z,35.40
2019-04-11T08:52:38.236Z,33.50
2019-04-11T08:55:19.635Z,33.40
2019-04-11T08:57:51.837Z,32.50
2019-04-11T09:00:33.098Z,33.70
2019-04-11T09:03:29.526Z,29.90
2019-04-11T09:06:04.276Z,31.40
2019-04-11T09:09:00.384Z,31.70
2019-04-11T09:11:31.071Z,31.80
2019-04-11T09:14:26.985Z,31.10
2019-04-11T09:17:26.324Z,28.60
2019-04-11T09:20:15.582Z,29.60
2019-04-11T09:23:05.732Z,28.70
2019-04-11T09:26:11.796Z,30.30
2019-04-11T09:28:49.457Z,28.80
2019-04-11T09:31:39.659Z,30.60
2019-04-11T09:34:40.023Z,30.10
2019-04-11T09:37:27.734Z,28.70
2019-04-11T09:40:24.317Z,29.90
2019-04-11T09:43:26.832Z,28.70
2019-04-11T09:46:18.600Z,28.80
2019-04-11T09:49:02.270Z,29.20
2019-04-11T09:51:48.342Z,28.60
2019-04-11T09:54:23.883Z,30.50
2019-04-11T09:57:23.331Z,28.60
2019-04-11T10:00:14.344Z,28.30
2019-04-11T10:03:01.697Z,28.20
2019-04-11T10:05:50.310Z,28.10
2019-04-11T10:08:33.633Z,27.00
2019-04-11T10:11:19.206Z,25.40
2019-04-11T10:14:05.150Z,27.20
2019-04-11T10:16:51.069Z,26.00
2019-04-11T10:19:42.314Z,26.70
2019-04-11T10:22:48.049Z,25.80
2019-04-11T10:25:28.286Z,25.60
2019-04-11T10:28:15.441Z,28.20
2019-04-11T10:31:18.078Z,25.70
2019-04-11T10:34:04.640Z,26.00
2019-04-11T10:36:43.234Z,26.80
2019-04-11T10:39:29.311Z,27.70
2019-04-11T10:42:04.287Z,25.70
2019-04-11T10:44:54.104Z,26.70
2019-04-11T10:47:23.548Z,27.30
2019-04-11T10:50:20.192Z,26.70
2019-04-11T10:52:53.539Z,27.20
2019-04-11T10:55:49.516Z,27.10
2019-04-11T10:58:33.131Z,26.30
2019-04-11T11:01:19.828Z,25.60
2019-04-11T11:04:01.117Z,24.30
2019-04-11T11:06:37.730Z,24.80
2019-04-11T11:09:17.678Z,25.40
2019-04-11T11:11:52.609Z,26.50
2019-04-11T11:14:39.629Z,26.40
2019-04-11T11:17:48.251Z,26.70
2019-04-11T11:20:36.532Z,26.40
2019-04-11T11:23:30.979Z,26.90
2019-04-11T11:26:22.689Z,27.40
2019-04-11T11:29:10.328Z,25.70
2019-04-11T11:31:59.211Z,26.60
2019-04-11T11:34:33.636Z,27.30
2019-04-11T11:37:24.926Z,27.70
2019-04-11T11:40:14.609Z,28.00
2019-04-11T11:42:59.360Z,28.50
2019-04-11T11:45:52.362Z,28.30
2019-04-11T11:48:39.548Z,28.30
2019-04-11T11:51:12.727Z,29.50
2019-04-11T11:54:03.078Z,29.20
2019-04-11T11:56:34.054Z,27.70
2019-04-11T11:59:30.701Z,29.50
2019-04-11T12:02:10.834Z,27.70
2019-04-11T12:05:11.301Z,28.20
2019-04-11T12:07:47.330Z,27.80
2019-04-11T12:10:43.855Z,27.10
2019-04-11T12:13:38.723Z,27.90
2019-04-11T12:16:23.771Z,28.00
2019-04-11T12:19:17.041Z,27.20
2019-04-11T12:21:46.369Z,27.70
2019-04-11T12:24:28.054Z,27.20
2019-04-11T12:27:04.504Z,27.60
2019-04-11T12:29:59.597Z,30.00
2019-04-11T12:32:30.541Z,27.60
2019-04-11T12:35:10.027Z,27.30
2019-04-11T12:37:43.398Z,27.80
2019-04-11T12:40:42.977Z,25.80
2019-04-11T12:43:12.626Z,26.80
2019-04-11T12:46:04.290Z,26.00
2019-04-11T12:48:37.625Z,28.60
2019-04-11T12:51:37.437Z,26.10
2019-04-11T12:54:07.389Z,28.70
2019-04-11T12:56:53.461Z,26.10
2019-04-11T12:59:24.614Z,26.00
2019-04-11T13:02:10.340Z,24.50
2019-04-11T13:04:45.028Z,25.60
2019-04-11T13:07:28.875Z,28.10
2019-04-11T13:10:02.510Z,25.90
2019-04-11T13:12:49.657Z,23.60
2019-04-11T13:15:37.550Z,24.90
2019-04-11T13:18:36.752Z,25.20
2019-04-11T13:21:10.836Z,26.90
2019-04-11T13:24:04.421Z,27.00
2019-04-11T13:27:16.273Z,26.30
2019-04-11T13:30:03.236Z,26.70
2019-04-11T13:32:44.924Z,24.20
2019-04-11T13:35:36.958Z,27.00
2019-04-11T13:38:09.646Z,24.40
2019-04-11T13:41:02.778Z,23.80
2019-04-11T13:43:34.371Z,26.10
2019-04-11T13:46:20.565Z,26.20
2019-04-11T13:49:22.500Z,24.40
2019-04-11T13:52:15.764Z,25.10
2019-04-11T13:55:08.592Z,26.00
2019-04-11T13:57:56.353Z,26.00
2019-04-11T14:00:39.561Z,26.20
2019-04-11T14:03:25.404Z,27.40
2019-04-11T14:05:54.666Z,24.70
2019-04-11T14:08:26.755Z,25.00
2019-04-11T14:14:38.075Z,25.90
2019-04-11T14:17:23.603Z,25.50
2019-04-11T14:20:12.490Z,26.10
2019-04-11T14:23:15.963Z,25.60
2019-04-11T14:26:03.164Z,26.20
2019-04-11T14:28:54.310Z,27.10
2019-04-11T14:31:46.431Z,26.00
2019-04-11T14:34:34.011Z,26.30
2019-04-11T14:37:38.034Z,27.20
2019-04-11T14:40:10.654Z,26.00
2019-04-11T14:42:47.840Z,25.70
2019-04-11T14:45:28.180Z,27.90
2019-04-11T14:48:33.631Z,28.20
2019-04-11T14:51:27.385Z,26.70
2019-04-11T14:54:02.998Z,28.00
2019-04-11T14:56:31.703Z,26.70
2019-04-11T14:59:34.075Z,27.50
2019-04-11T15:02:06.967Z,27.00
2019-04-11T15:05:03.173Z,27.90
2019-04-11T15:07:33.005Z,28.40
2019-04-11T15:10:18.980Z,27.70
2019-04-11T15:12:48.092Z,28.40
2019-04-11T15:15:34.710Z,28.80
2019-04-11T15:18:03.499Z,28.30
2019-04-11T15:21:00.763Z,28.60
2019-04-11T15:23:40.913Z,29.10
2019-04-11T15:26:27.955Z,29.00
2019-04-11T15:29:07.207Z,30.20
2019-04-11T15:31:53.526Z,29.60
2019-04-11T15:34:49.432Z,30.30
2019-04-11T15:37:37.663Z,30.60
2019-04-11T15:40:14.041Z,30.40
2019-04-11T15:43:11.783Z,30.30
2019-04-11T15:45:46.707Z,29.20
2019-04-11T15:48:33.958Z,29.80
2019-04-11T15:51:40.422Z,30.30
2019-04-11T15:54:17.143Z,30.40
2019-04-11T15:56:57.673Z,30.10
2019-04-11T15:59:47.804Z,31.20
2019-04-11T16:02:37.705Z,30.20
2019-04-11T16:05:39.937Z,32.40
2019-04-11T16:08:31.654Z,32.70
2019-04-11T16:11:24.910Z,32.60
2019-04-11T16:14:24.122Z,32.40
2019-04-11T16:17:13.757Z,33.30
2019-04-11T16:20:00.688Z,33.10
2019-04-11T16:22:46.477Z,34.10
2019-04-11T16:25:19.770Z,33.60
2019-04-11T16:28:08.046Z,32.60
2019-04-11T16:31:04.402Z,32.30
2019-04-11T16:33:50.075Z,33.60
2019-04-11T16:36:29.552Z,34.00
2019-04-11T16:39:27.310Z,32.30
2019-04-11T16:42:26.063Z,34.40
2019-04-11T16:45:24.728Z,33.10
2019-04-11T16:48:09.864Z,33.30
2019-04-11T16:50:37.670Z,33.70
2019-04-11T16:53:05.723Z,33.70
2019-04-11T16:55:33.204Z,33.70
2019-04-11T16:58:00.926Z,33.40
2019-04-11T17:00:34.621Z,33.70
2019-04-11T17:03:08.687Z,34.40
2019-04-11T17:05:43.411Z,34.60
2019-04-11T17:08:35.031Z,34.80
2019-04-11T17:11:09.467Z,34.50
2019-04-11T17:13:37.997Z,35.70
2019-04-11T17:16:08.084Z,34.30
2019-04-11T17:18:38.327Z,35.00
2019-04-11T17:21:08.791Z,36.40
2019-04-11T17:23:36.808Z,34.90
2019-04-11T17:26:07.566Z,35.90
2019-04-11T17:28:35.591Z,36.60
2019-04-11T17:31:03.290Z,36.30
2019-04-11T17:33:31.059Z,34.90
2019-04-11T17:36:01.799Z,35.20
2019-04-11T17:38:28.251Z,36.20
2019-04-11T17:40:56.200Z,35.80
2019-04-11T17:43:26.072Z,35.20
2019-04-11T17:46:00.875Z,35.10
2019-04-11T17:48:30.857Z,35.20
2019-04-11T17:50:59.348Z,35.50
2019-04-11T17:53:27.169Z,34.90
2019-04-11T17:55:55.556Z,35.20
2019-04-11T17:58:27.247Z,36.40
2019-04-11T18:01:00.362Z,36.30
2019-04-11T18:03:28.453Z,35.80
2019-04-11T18:05:56.662Z,33.40
2019-04-11T18:08:24.371Z,33.80
2019-04-11T18:10:55.979Z,34.30
2019-04-11T18:13:23.403Z,34.50
2019-04-11T18:15:52.486Z,35.30
2019-04-11T18:18:20.103Z,34.70
2019-04-11T18:20:47.603Z,34.30
2019-04-11T18:23:15.151Z,33.90
2019-04-11T18:25:42.934Z,34.30
2019-04-11T18:28:10.375Z,36.10
2019-04-11T18:30:37.892Z,35.10
2019-04-11T18:33:05.582Z,34.50
2019-04-11T18:35:33.287Z,34.70
2019-04-11T18:38:02.118Z,35.60
2019-04-11T18:40:33.080Z,35.60
2019-04-11T18:43:00.822Z,36.20
2019-04-11T18:45:29.335Z,36.60
2019-04-11T18:48:01.530Z,37.80
2019-04-11T18:50:29.032Z,39.20
2019-04-11T18:53:08.919Z,40.50
2019-04-11T18:55:36.881Z,41.30
2019-04-11T18:58:04.976Z,42.00
2019-04-11T19:00:32.551Z,42.70
2019-04-11T19:03:01.307Z,42.90
2019-04-11T19:05:29.484Z,43.40
2019-04-11T19:07:58.020Z,43.50
2019-04-11T19:10:25.659Z,43.50
2019-04-11T19:12:56.601Z,43.80
2019-04-11T19:15:24.736Z,44.50
2019-04-11T19:18:06.615Z,44.70
2019-04-11T19:20:31.247Z,44.70
2019-04-11T19:27:54.208Z,44.90
2019-04-11T19:31:55.309Z,45.70
2019-04-11T19:35:41.385Z,45.90
2019-04-11T19:42:33.722Z,47.10
2019-04-11T19:46:30.087Z,47.50
2019-04-11T19:49:24.341Z,47.40
2019-04-11T19:52:45.373Z,47.90
2019-04-11T19:55:54.159Z,48.30
2019-04-11T19:59:15.034Z,48.70
2019-04-11T20:02:26.559Z,48.90
2019-04-11T20:05:44.794Z,49.20
2019-04-11T20:09:06.084Z,49.50
2019-04-11T20:12:16.190Z,49.80
2019-04-11T20:14:48.427Z,49.80
2019-04-11T20:18:08.582Z,50.30
2019-04-11T20:21:42.221Z,50.00
2019-04-11T20:25:26.849Z,50.20
2019-04-11T20:27:58.547Z,51.10
2019-04-11T20:31:06.127Z,51.10
2019-04-11T20:34:26.775Z,50.90
2019-04-11T20:37:44.423Z,51.10
2019-04-11T20:41:06.926Z,51.70
2019-04-11T20:44:43.856Z,51.80
2019-04-11T20:48:05.042Z,51.80
2019-04-11T20:51:21.926Z,52.20
2019-04-11T20:54:20.028Z,52.20
2019-04-11T21:01:16.859Z,51.90
2019-04-11T21:04:48.765Z,52.30
2019-04-11T21:08:04.116Z,52.40
2019-04-11T21:10:45.936Z,52.30
2019-04-11T21:14:13.992Z,52.10
2019-04-11T21:17:56.074Z,52.50
2019-04-11T21:24:42.287Z,53.30
2019-04-11T21:27:56.698Z,53.10
2019-04-11T21:34:51.167Z,53.70
2019-04-11T21:38:12.820Z,53.60
2019-04-11T21:41:48.045Z,53.80
2019-04-11T21:45:29.907Z,54.10
2019-04-11T21:48:53.985Z,54.40
2019-04-11T21:51:56.594Z,54.60
2019-04-11T21:55:14.894Z,55.20
2019-04-11T21:57:53.522Z,55.10
2019-04-11T22:01:05.634Z,55.50
2019-04-11T22:03:57.839Z,55.50
2019-04-11T22:06:49.659Z,55.50
2019-04-11T22:09:23.035Z,55.70
2019-04-11T22:12:57.543Z,55.70
2019-04-11T22:15:43.119Z,55.60
2019-04-11T22:18:23.818Z,56.20
2019-04-11T22:21:15.590Z,56.10
2019-04-11T22:23:55.348Z,56.30
2019-04-11T22:27:12.400Z,56.00
2019-04-11T22:29:44.773Z,56.10
2019-04-11T22:33:12.497Z,56.40
2019-04-11T22:36:08.805Z,56.70
2019-04-11T22:39:15.123Z,56.60
2019-04-11T22:42:00.389Z,56.30
2019-04-11T22:45:37.666Z,56.60
2019-04-11T22:48:29.594Z,56.40
2019-04-11T22:51:47.502Z,56.60
2019-04-11T22:55:11.332Z,56.60
2019-04-11T22:57:38.089Z,56.30
2019-04-11T23:00:05.990Z,56.60
2019-04-11T23:02:48.703Z,56.70
2019-04-11T23:05:17.298Z,57.00
2019-04-11T23:07:45.917Z,56.90
2019-04-11T23:10:17.071Z,57.70
2019-04-11T23:12:45.818Z,56.90
2019-04-11T23:15:15.122Z,56.90
2019-04-11T23:17:44.100Z,56.70
2019-04-11T23:20:14.438Z,56.90
2019-04-11T23:22:43.632Z,57.30
2019-04-11T23:25:12.132Z,57.50
2019-04-11T23:27:40.693Z,57.40
2019-04-11T23:30:10.172Z,57.20
2019-04-11T23:32:39.651Z,57.30
2019-04-11T23:35:08.350Z,57.10
2019-04-11T23:37:51.782Z,57.30
2019-04-11T23:40:30.428Z,57.30
2019-04-11T23:42:58.111Z,57.70
2019-04-11T23:45:27.451Z,57.70
2019-04-11T23:47:57.015Z,57.30
2019-04-11T23:50:33.004Z,57.90
2019-04-11T23:53:04.251Z,58.00
2019-04-11T23:55:32.399Z,58.20
2019-04-11T23:58:01.624Z,58.70
